Terminal Aerodrome Forecast
Issued by NWS

Home | Current Version | Previous Version | Text Only | Print | Product List | Glossary On
Versions: 1 2 3 4 5 6 7 8 9 10 11 12
904
FTUS44 KSJT 102331
TAFSOA
TAF
KSOA 102331Z 1100/1124 21007KT P6SM SKC
     FM110200 VRB03KT P6SM SKC
     FM111700 25007KT P6SM FEW250=

USA.gov is the U.S. government's official web portal to all federal, state and local government web resources and services.